Time;durP1;ratioP1;P1;durP2;ratioP2;P2;SDS_P1;SDS_P2;PMS_P1;PMS_P2;Temp;Humidity;BMP_temperature;BMP_pressure;BME280_temperature;BME280_humidity;BME280_pressure;Samples;Min_cycle;Max_cycle;Signal;HPM_P1;HPM_P2
2022/04/19 00:00:24;;;;;;;;;;;;;;;;;;5069584;28;19932;-60
2022/04/19 00:02:50;;;;;;;;;;;;;;;;;;5069724;28;19962;-59
2022/04/19 00:05:16;;;;;;;;;;;;;;;;;;5070238;28;19935;-62
2022/04/19 00:07:44;;;;;;;;;;;;;;;;;;5071076;28;20300;-60
2022/04/19 00:10:10;;;;;;;;;;;;;;;;;;5070636;28;19925;-60
2022/04/19 00:12:36;;;;;;;;;;;;;;;;;;5070556;28;19925;-60
2022/04/19 00:15:02;;;;;;;;;;;;;;;;;;5069590;28;19924;-60
2022/04/19 00:17:29;;;;;;;;;;;;;;;;;;5069428;28;19950;-60
2022/04/19 00:19:55;;;;;;;;;;;;;;;;;;5069360;28;19929;-60
2022/04/19 00:22:21;;;;;;;;;;;;;;;;;;5069255;28;20381;-61
2022/04/19 00:24:47;;;;;;;;;;;;;;;;;;5068879;28;19944;-60
2022/04/19 00:27:13;;;;;;;;;;;;;;;;;;5071521;28;19931;-60
2022/04/19 00:29:41;;;;;;;;;;;;;;;;;;5069469;28;19932;-60
2022/04/19 00:32:07;;;;;;;;;;;;;;;;;;5069282;28;19928;-60
2022/04/19 00:34:33;;;;;;;;;;;;;;;;;;5070811;28;20505;-60
2022/04/19 00:37:01;;;;;;;;;;;;;;;;;;5069213;28;20305;-59
2022/04/19 00:39:27;;;;;;;;;;;;;;;;;;5069318;28;19982;-59
2022/04/19 00:41:55;;;;;;;;;;;;;;;;;;5071560;28;19928;-60
2022/04/19 00:44:23;;;;;;;;;;;;;;;;;;5073307;28;20391;-61
2022/04/19 00:46:49;;;;;;;;;;;;;;;;;;5072169;28;20329;-60
2022/04/19 00:49:17;;;;;;;;;;;;;;;;;;5071587;28;19924;-60
2022/04/19 00:51:43;;;;;;;;;;;;;;;;;;5072442;28;19924;-61
2022/04/19 00:54:09;;;;;;;;;;;;;;;;;;5073002;28;20293;-61
2022/04/19 00:56:35;;;;;;;;;;;;;;;;;;5072885;28;19925;-60
2022/04/19 00:59:02;;;;;;;;;;;;;;;;;;5072841;28;20015;-60
2022/04/19 01:01:28;;;;;;;;;;;;;;;;;;5071825;28;20276;-61
2022/04/19 01:03:54;;;;;;;;;;;;;;;;;;5076433;28;19931;-60
2022/04/19 01:06:20;;;;;;;;;;;;;;;;;;5073454;28;19924;-60
2022/04/19 01:08:46;;;;;;;;;;;;;;;;;;5074565;28;19924;-59
2022/04/19 01:14:04;;;;;;;;;;;;;;;;;;5044300;28;19927;-59
2022/04/19 01:16:31;;;;;;;;;;;;;;;;;;5075558;28;19931;-59
2022/04/19 01:18:57;;;;;;;;;;;;;;;;;;5076343;28;19988;-60
2022/04/19 01:21:27;;;;;;;;;;;;;;;;;;5072589;28;19931;-60
2022/04/19 01:23:53;;;;;;;;;;;;;;;;;;5072885;28;20420;-59
2022/04/19 01:26:19;;;;;;;;;;;;;;;;;;5068795;28;20354;-60
2022/04/19 01:28:45;;;;;;;;;;;;;;;;;;5072460;28;19929;-60
2022/04/19 01:31:11;;;;;;;;;;;;;;;;;;5072017;28;20015;-61
2022/04/19 01:33:38;;;;;;;;;;;;;;;;;;5072315;28;19928;-61
2022/04/19 01:36:04;;;;;;;;;;;;;;;;;;5072911;28;20045;-61
2022/04/19 01:38:30;;;;;;;;;;;;;;;;;;5072229;28;19925;-60
2022/04/19 01:40:56;;;;;;;;;;;;;;;;;;5071529;28;19925;-60
2022/04/19 01:43:22;;;;;;;;;;;;;;;;;;5072097;28;19931;-60
2022/04/19 01:45:48;;;;;;;;;;;;;;;;;;5071671;28;19996;-61
2022/04/19 01:48:15;;;;;;;;;;;;;;;;;;5071924;28;19924;-61
2022/04/19 01:50:41;;;;;;;;;;;;;;;;;;5071746;28;20011;-62
2022/04/19 01:53:07;;;;;;;;;;;;;;;;;;5072157;28;19925;-61
2022/04/19 01:55:33;;;;;;;;;;;;;;;;;;5071990;28;20282;-61
2022/04/19 01:58:00;;;;;;;;;;;;;;;;;;5072107;28;19978;-59
2022/04/19 02:00:29;;;;;;;;;;;;;;;;;;5071152;28;19963;-60
2022/04/19 02:02:55;;;;;;;;;;;;;;;;;;5072014;28;19928;-60
2022/04/19 02:05:22;;;;;;;;;;;;;;;;;;5076723;28;19931;-59
2022/04/19 02:07:48;;;;;;;;;;;;;;;;;;5072873;28;19924;-60
2022/04/19 02:10:14;;;;;;;;;;;;;;;;;;5071844;28;19928;-61
2022/04/19 02:12:40;;;;;;;;;;;;;;;;;;5073186;28;19925;-60
2022/04/19 02:15:06;;;;;;;;;;;;;;;;;;5070545;28;19931;-60
2022/04/19 02:17:33;;;;;;;;;;;;;;;;;;5070929;28;19925;-59
2022/04/19 02:20:00;;;;;;;;;;;;;;;;;;5070460;28;20180;-58
2022/04/19 02:22:27;;;;;;;;;;;;;;;;;;5064703;28;20348;-58
2022/04/19 02:24:53;;;;;;;;;;;;;;;;;;5070490;28;20376;-59
2022/04/19 02:27:19;;;;;;;;;;;;;;;;;;5070889;28;19924;-60
2022/04/19 02:29:45;;;;;;;;;;;;;;;;;;5071029;28;19925;-60
2022/04/19 02:32:12;;;;;;;;;;;;;;;;;;5070934;28;19924;-58
2022/04/19 02:34:38;;;;;;;;;;;;;;;;;;5071325;28;19929;-58
2022/04/19 02:37:04;;;;;;;;;;;;;;;;;;5071515;28;19925;-57
2022/04/19 02:39:30;;;;;;;;;;;;;;;;;;5074434;28;19928;-58
2022/04/19 02:41:56;;;;;;;;;;;;;;;;;;5091092;22;19924;-58
2022/04/19 02:44:22;;;;;;;;;;;;;;;;;;5074987;28;19924;-59
2022/04/19 02:46:49;;;;;;;;;;;;;;;;;;5062427;28;19932;-59
2022/04/19 02:49:15;;;;;;;;;;;;;;;;;;5055150;28;19941;-60
2022/04/19 02:51:41;;;;;;;;;;;;;;;;;;5063107;28;20013;-59
2022/04/19 02:54:08;;;;;;;;;;;;;;;;;;5058914;28;20330;-59
2022/04/19 02:56:34;;;;;;;;;;;;;;;;;;5062264;28;20003;-59
2022/04/19 02:59:00;;;;;;;;;;;;;;;;;;5068289;28;19925;-59
2022/04/19 03:01:26;;;;;;;;;;;;;;;;;;5060174;28;19925;-59
2022/04/19 03:03:52;;;;;;;;;;;;;;;;;;5055971;28;19925;-59
2022/04/19 03:06:18;;;;;;;;;;;;;;;;;;5057395;28;19925;-58
2022/04/19 03:08:44;;;;;;;;;;;;;;;;;;5061417;28;19932;-57
2022/04/19 03:11:12;;;;;;;;;;;;;;;;;;5059398;28;19996;-58
2022/04/19 03:13:38;;;;;;;;;;;;;;;;;;5068840;28;19924;-58
2022/04/19 03:16:04;;;;;;;;;;;;;;;;;;5060417;28;19924;-58
2022/04/19 03:18:31;;;;;;;;;;;;;;;;;;5056871;28;19947;-58
2022/04/19 03:20:57;;;;;;;;;;;;;;;;;;5060270;28;20300;-59
2022/04/19 03:28:51;;;;;;;;;;;;;;;;;;5061625;28;19919;-59
2022/04/19 03:31:17;;;;;;;;;;;;;;;;;;5059165;28;19951;-58
2022/04/19 03:33:43;;;;;;;;;;;;;;;;;;5066425;28;19929;-58
2022/04/19 03:36:09;;;;;;;;;;;;;;;;;;5063947;28;19931;-58
2022/04/19 03:38:35;;;;;;;;;;;;;;;;;;5060966;28;19932;-59
2022/04/19 03:41:01;;;;;;;;;;;;;;;;;;5063493;28;20392;-59
2022/04/19 03:43:28;;;;;;;;;;;;;;;;;;5053228;28;19929;-60
2022/04/19 03:45:54;;;;;;;;;;;;;;;;;;5059892;28;20000;-59
2022/04/19 03:48:20;;;;;;;;;;;;;;;;;;5058585;28;19932;-59
2022/04/19 03:50:47;;;;;;;;;;;;;;;;;;5059430;28;19924;-57
2022/04/19 03:53:13;;;;;;;;;;;;;;;;;;5058426;28;20385;-56
2022/04/19 03:55:39;;;;;;;;;;;;;;;;;;5059207;28;19951;-58
2022/04/19 03:58:05;;;;;;;;;;;;;;;;;;5064474;28;19928;-59
2022/04/19 04:00:31;;;;;;;;;;;;;;;;;;5056644;28;19928;-58
2022/04/19 04:02:57;;;;;;;;;;;;;;;;;;5056540;28;20402;-58
2022/04/19 04:05:24;;;;;;;;;;;;;;;;;;5054435;28;20552;-60
2022/04/19 04:07:50;;;;;;;;;;;;;;;;;;5059820;28;19929;-59
2022/04/19 04:10:16;;;;;;;;;;;;;;;;;;5059359;28;19925;-59
2022/04/19 04:12:43;;;;;;;;;;;;;;;;;;5059586;28;19959;-59
2022/04/19 04:15:09;;;;;;;;;;;;;;;;;;5060078;28;20006;-62
2022/04/19 04:17:35;;;;;;;;;;;;;;;;;;5060155;28;19925;-60
2022/04/19 04:20:01;;;;;;;;;;;;;;;;;;5068067;28;20369;-60
2022/04/19 04:22:27;;;;;;;;;;;;;;;;;;5061663;28;20372;-61
2022/04/19 04:24:53;;;;;;;;;;;;;;;;;;5063509;28;20400;-61
2022/04/19 04:27:19;;;;;;;;;;;;;;;;;;5061984;28;20354;-61
2022/04/19 04:29:46;;;;;;;;;;;;;;;;;;5058357;28;19935;-61
2022/04/19 04:32:12;;;;;;;;;;;;;;;;;;5064501;28;19970;-61
2022/04/19 04:34:38;;;;;;;;;;;;;;;;;;5065735;28;19932;-62
2022/04/19 04:37:04;;;;;;;;;;;;;;;;;;5063437;28;19925;-62
2022/04/19 04:39:30;;;;;;;;;;;;;;;;;;5060979;28;19931;-63
2022/04/19 04:41:56;;;;;;;;;;;;;;;;;;5063199;28;19935;-63
2022/04/19 04:44:23;;;;;;;;;;;;;;;;;;5060351;28;19936;-63
2022/04/19 04:49:40;;;;;;;;;;;;;;;;;;5059616;28;20016;-63
2022/04/19 04:52:06;;;;;;;;;;;;;;;;;;5060677;28;19940;-63
2022/04/19 04:54:32;;;;;;;;;;;;;;;;;;5060027;28;20297;-64
2022/04/19 04:56:58;;;;;;;;;;;;;;;;;;5064645;28;19939;-64
2022/04/19 04:59:24;;;;;;;;;;;;;;;;;;5062403;28;19932;-64
2022/04/19 05:01:50;;;;;;;;;;;;;;;;;;5061406;28;19958;-67
2022/04/19 05:04:16;;;;;;;;;;;;;;;;;;5060473;28;20397;-67
2022/04/19 05:06:43;;;;;;;;;;;;;;;;;;5062851;28;19924;-67
2022/04/19 05:09:09;;;;;;;;;;;;;;;;;;5061217;28;19931;-67
2022/04/19 05:11:35;;;;;;;;;;;;;;;;;;5062032;28;19932;-68
2022/04/19 05:14:01;;;;;;;;;;;;;;;;;;5056357;28;19928;-66
2022/04/19 05:16:27;;;;;;;;;;;;;;;;;;4363613;28;10000830;-67
2022/04/19 05:18:53;;;;;;;;;;;;;;;;;;5058927;28;20372;-67
2022/04/19 05:21:20;;;;;;;;;;;;;;;;;;5058129;28;20336;-68
2022/04/19 05:23:46;;;;;;;;;;;;;;;;;;5057397;28;19932;-68
2022/04/19 05:26:12;;;;;;;;;;;;;;;;;;5059568;28;20382;-68
2022/04/19 05:28:38;;;;;;;;;;;;;;;;;;5065587;28;19928;-67
2022/04/19 05:31:04;;;;;;;;;;;;;;;;;;5070333;28;19928;-68
2022/04/19 05:33:31;;;;;;;;;;;;;;;;;;5065344;28;19947;-67
2022/04/19 05:35:57;;;;;;;;;;;;;;;;;;5066922;28;19928;-66
2022/04/19 05:38:23;;;;;;;;;;;;;;;;;;5052631;28;19929;-68
2022/04/19 05:40:49;;;;;;;;;;;;;;;;;;5064561;28;20028;-67
2022/04/19 05:43:15;;;;;;;;;;;;;;;;;;5052580;28;19955;-67
2022/04/19 05:45:42;;;;;;;;;;;;;;;;;;5060417;28;19929;-68
2022/04/19 05:48:08;;;;;;;;;;;;;;;;;;5061379;28;19928;-67
2022/04/19 05:50:34;;;;;;;;;;;;;;;;;;5065915;28;19925;-69
2022/04/19 05:53:00;;;;;;;;;;;;;;;;;;5059896;28;19925;-67
2022/04/19 05:55:27;;;;;;;;;;;;;;;;;;5060808;28;19925;-68
2022/04/19 05:57:53;;;;;;;;;;;;;;;;;;5071383;28;19998;-68
2022/04/19 06:00:19;;;;;;;;;;;;;;;;;;5061903;28;19925;-68
2022/04/19 06:05:29;;;;;;;;;;;;;;;;;;5058496;28;20447;-68
2022/04/19 06:07:55;;;;;;;;;;;;;;;;;;5055102;28;19948;-68
2022/04/19 06:10:22;;;;;;;;;;;;;;;;;;5063303;28;19939;-69
2022/04/19 06:12:48;;;;;;;;;;;;;;;;;;5056263;28;19925;-67
2022/04/19 06:15:14;;;;;;;;;;;;;;;;;;5059550;28;19924;-68
2022/04/19 06:17:41;;;;;;;;;;;;;;;;;;5065888;28;20294;-68
2022/04/19 06:20:07;;;;;;;;;;;;;;;;;;5068376;28;20285;-67
2022/04/19 06:22:33;;;;;;;;;;;;;;;;;;5060607;28;19925;-68
2022/04/19 06:24:59;;;;;;;;;;;;;;;;;;5062486;28;19928;-67
2022/04/19 06:27:25;;;;;;;;;;;;;;;;;;5065641;28;19931;-67
2022/04/19 06:29:52;;;;;;;;;;;;;;;;;;5068033;28;19937;-67
2022/04/19 06:32:19;;;;;;;;;;;;;;;;;;5052169;28;19978;-67
2022/04/19 06:34:45;;;;;;;;;;;;;;;;;;5054399;28;19935;-68
2022/04/19 06:37:11;;;;;;;;;;;;;;;;;;5054049;28;19925;-67
2022/04/19 06:39:37;;;;;;;;;;;;;;;;;;5057775;28;19995;-68
2022/04/19 06:42:03;;;;;;;;;;;;;;;;;;5063600;28;19929;-68
2022/04/19 06:44:29;;;;;;;;;;;;;;;;;;5059453;28;19924;-68
2022/04/19 06:46:56;;;;;;;;;;;;;;;;;;5071081;28;19978;-68
2022/04/19 06:49:22;;;;;;;;;;;;;;;;;;4718538;28;9999594;-68
2022/04/19 06:51:49;;;;;;;;;;;;;;;;;;5067445;28;19966;-68
2022/04/19 06:54:16;;;;;;;;;;;;;;;;;;5062042;28;19984;-67
2022/04/19 06:56:42;;;;;;;;;;;;;;;;;;5069541;28;19936;-68
2022/04/19 06:59:09;;;;;;;;;;;;;;;;;;5064524;28;19925;-68
2022/04/19 07:01:35;;;;;;;;;;;;;;;;;;5063448;28;19925;-68
2022/04/19 07:04:01;;;;;;;;;;;;;;;;;;5062522;28;19933;-69
2022/04/19 07:06:27;;;;;;;;;;;;;;;;;;5071083;28;19947;-69
2022/04/19 07:08:53;;;;;;;;;;;;;;;;;;5076244;28;20372;-69
2022/04/19 07:11:19;;;;;;;;;;;;;;;;;;5073761;28;20546;-68
2022/04/19 07:13:46;;;;;;;;;;;;;;;;;;5079240;28;19924;-69
2022/04/19 07:16:12;;;;;;;;;;;;;;;;;;5076785;28;19913;-69
2022/04/19 07:18:38;;;;;;;;;;;;;;;;;;5091039;28;19912;-69
2022/04/19 07:26:41;;;;;;;;;;;;;;;;;;5068063;28;19976;-69
2022/04/19 07:29:07;;;;;;;;;;;;;;;;;;5074593;28;19939;-69
2022/04/19 07:31:34;;;;;;;;;;;;;;;;;;5073802;28;19933;-68
2022/04/19 07:34:00;;;;;;;;;;;;;;;;;;5068099;28;19940;-67
2022/04/19 07:36:26;;;;;;;;;;;;;;;;;;5069450;28;19929;-68
2022/04/19 07:38:52;;;;;;;;;;;;;;;;;;5062622;28;19929;-68
2022/04/19 07:41:20;;;;;;;;;;;;;;;;;;5063207;28;19935;-67
2022/04/19 07:43:47;;;;;;;;;;;;;;;;;;5055261;28;19924;-68
2022/04/19 07:46:15;;;;;;;;;;;;;;;;;;5070080;28;19932;-68
2022/04/19 07:48:41;;;;;;;;;;;;;;;;;;5070463;28;20011;-68
2022/04/19 07:51:07;;;;;;;;;;;;;;;;;;5054538;28;19931;-68
2022/04/19 07:53:33;;;;;;;;;;;;;;;;;;5068449;28;19928;-68
2022/04/19 07:56:00;;;;;;;;;;;;;;;;;;5064121;28;19988;-68
2022/04/19 07:58:26;;;;;;;;;;;;;;;;;;5066718;28;19925;-68
2022/04/19 08:00:52;;;;;;;;;;;;;;;;;;5055841;28;20330;-69
2022/04/19 08:03:18;;;;;;;;;;;;;;;;;;5061819;28;19960;-68
2022/04/19 08:05:44;;;;;;;;;;;;;;;;;;5060241;28;19928;-69
2022/04/19 08:08:11;;;;;;;;;;;;;;;;;;5058043;28;19952;-68
2022/04/19 08:10:37;;;;;;;;;;;;;;;;;;5062187;28;19928;-68
2022/04/19 08:13:04;;;;;;;;;;;;;;;;;;5055228;28;20661;-69
2022/04/19 08:15:30;;;;;;;;;;;;;;;;;;5058912;28;19939;-69
2022/04/19 08:17:57;;;;;;;;;;;;;;;;;;5060541;28;19928;-68
2022/04/19 08:20:23;;;;;;;;;;;;;;;;;;5063049;28;19932;-69
2022/04/19 08:22:49;;;;;;;;;;;;;;;;;;5061498;28;20347;-69
2022/04/19 08:25:15;;;;;;;;;;;;;;;;;;5058328;28;19932;-67
2022/04/19 08:27:42;;;;;;;;;;;;;;;;;;5056634;28;19955;-68
2022/04/19 08:30:09;;;;;;;;;;;;;;;;;;5066679;28;19929;-69
2022/04/19 08:32:35;;;;;;;;;;;;;;;;;;5057314;28;19932;-69
2022/04/19 08:35:01;;;;;;;;;;;;;;;;;;5055297;28;19948;-69
2022/04/19 08:37:28;;;;;;;;;;;;;;;;;;5058370;28;19939;-69
2022/04/19 08:39:54;;;;;;;;;;;;;;;;;;5064523;28;20078;-69
2022/04/19 08:42:20;;;;;;;;;;;;;;;;;;5081140;22;20486;-68
2022/04/19 08:44:47;;;;;;;;;;;;;;;;;;5102064;28;20114;-68
2022/04/19 08:47:13;;;;;;;;;;;;;;;;;;5104580;28;19924;-69
2022/04/19 08:49:40;;;;;;;;;;;;;;;;;;5106435;28;20395;-69
2022/04/19 08:52:06;;;;;;;;;;;;;;;;;;5107086;28;19923;-68
2022/04/19 08:57:31;;;;;;;;;;;;;;;;;;5105913;28;20440;-67
2022/04/19 08:59:58;;;;;;;;;;;;;;;;;;5105609;28;20028;-67
2022/04/19 09:02:24;;;;;;;;;;;;;;;;;;5105111;28;19930;-68
2022/04/19 09:04:50;;;;;;;;;;;;;;;;;;5110287;28;19928;-68
2022/04/19 09:07:16;;;;;;;;;;;;;;;;;;5107582;28;19928;-67
2022/04/19 09:09:43;;;;;;;;;;;;;;;;;;5106263;28;20388;-67
2022/04/19 09:12:10;;;;;;;;;;;;;;;;;;5109184;28;20403;-69
2022/04/19 09:14:36;;;;;;;;;;;;;;;;;;5102161;28;20109;-68
2022/04/19 09:17:02;;;;;;;;;;;;;;;;;;5110148;28;19927;-69
2022/04/19 09:19:28;;;;;;;;;;;;;;;;;;5109769;28;20422;-68
2022/04/19 09:21:54;;;;;;;;;;;;;;;;;;5110451;28;19923;-68
2022/04/19 09:24:21;;;;;;;;;;;;;;;;;;5106716;28;19975;-68
2022/04/19 09:26:48;;;;;;;;;;;;;;;;;;5110179;28;20300;-69
2022/04/19 09:29:14;;;;;;;;;;;;;;;;;;5109347;28;19931;-68
2022/04/19 09:31:40;;;;;;;;;;;;;;;;;;5106151;28;19928;-67
2022/04/19 09:34:06;;;;;;;;;;;;;;;;;;5109017;28;19928;-68
2022/04/19 09:36:32;;;;;;;;;;;;;;;;;;5110385;28;20128;-69
2022/04/19 09:38:58;;;;;;;;;;;;;;;;;;5110694;28;20255;-68
2022/04/19 09:41:25;;;;;;;;;;;;;;;;;;5110418;28;19928;-68
2022/04/19 09:43:51;;;;;;;;;;;;;;;;;;5106423;28;19939;-70
2022/04/19 09:46:17;;;;;;;;;;;;;;;;;;5107955;28;19927;-70
2022/04/19 09:48:45;;;;;;;;;;;;;;;;;;5108159;28;19927;-68
2022/04/19 09:51:11;;;;;;;;;;;;;;;;;;5110165;28;19931;-69
2022/04/19 09:53:37;;;;;;;;;;;;;;;;;;5102320;28;19966;-70
2022/04/19 09:56:03;;;;;;;;;;;;;;;;;;5107999;28;20453;-69
2022/04/19 09:58:30;;;;;;;;;;;;;;;;;;5099658;28;19934;-69
2022/04/19 10:00:57;;;;;;;;;;;;;;;;;;5109370;28;19991;-68
2022/04/19 10:08:56;;;;;;;;;;;;;;;;;;5106874;28;19924;-69
2022/04/19 10:11:22;;;;;;;;;;;;;;;;;;5108994;28;19928;-68
2022/04/19 10:13:48;;;;;;;;;;;;;;;;;;5108527;28;20415;-69
2022/04/19 10:16:15;;;;;;;;;;;;;;;;;;5107509;28;19927;-68
2022/04/19 10:18:41;;;;;;;;;;;;;;;;;;5109661;28;19931;-68
2022/04/19 10:21:07;;;;;;;;;;;;;;;;;;5109664;28;19928;-68
2022/04/19 10:23:34;;;;;;;;;;;;;;;;;;5106315;28;19928;-68
2022/04/19 10:26:00;;;;;;;;;;;;;;;;;;5108688;28;19950;-68
2022/04/19 10:28:26;;;;;;;;;;;;;;;;;;5107530;28;20300;-69
2022/04/19 10:30:53;;;;;;;;;;;;;;;;;;5108235;28;19950;-69
2022/04/19 10:33:19;;;;;;;;;;;;;;;;;;5107590;28;20014;-68
2022/04/19 10:35:45;;;;;;;;;;;;;;;;;;5105509;28;19943;-69
2022/04/19 10:38:12;;;;;;;;;;;;;;;;;;5109141;28;20384;-69
2022/04/19 10:40:38;;;;;;;;;;;;;;;;;;5108761;28;19928;-70
2022/04/19 10:43:04;;;;;;;;;;;;;;;;;;5108830;28;19928;-69
2022/04/19 10:45:31;;;;;;;;;;;;;;;;;;5105874;28;19938;-68
2022/04/19 10:47:57;;;;;;;;;;;;;;;;;;5100988;28;19928;-69
2022/04/19 10:50:23;;;;;;;;;;;;;;;;;;5105669;28;19930;-68
2022/04/19 10:52:49;;;;;;;;;;;;;;;;;;5108313;28;19934;-68
2022/04/19 10:55:17;;;;;;;;;;;;;;;;;;5101373;28;20004;-68
2022/04/19 11:00:27;;;;;;;;;;;;;;;;;;5111233;28;19919;-69
2022/04/19 11:02:53;;;;;;;;;;;;;;;;;;5105151;28;20020;-67
2022/04/19 11:05:19;;;;;;;;;;;;;;;;;;5107569;28;19928;-68
2022/04/19 11:07:46;;;;;;;;;;;;;;;;;;5108782;28;20344;-68
2022/04/19 11:10:12;;;;;;;;;;;;;;;;;;5108610;28;19934;-68
2022/04/19 11:12:38;;;;;;;;;;;;;;;;;;5101813;28;20413;-67
2022/04/19 11:15:05;;;;;;;;;;;;;;;;;;5107201;28;19924;-68
2022/04/19 11:17:33;;;;;;;;;;;;;;;;;;5110298;28;19924;-68
2022/04/19 11:19:59;;;;;;;;;;;;;;;;;;5106586;28;20023;-68
2022/04/19 11:22:29;;;;;;;;;;;;;;;;;;5109657;28;20015;-68
2022/04/19 11:24:55;;;;;;;;;;;;;;;;;;5107921;28;19928;-68
2022/04/19 11:27:21;;;;;;;;;;;;;;;;;;5100232;28;19932;-68
2022/04/19 11:29:48;;;;;;;;;;;;;;;;;;5107911;28;20181;-68
2022/04/19 11:32:14;;;;;;;;;;;;;;;;;;5102200;28;19931;-67
2022/04/19 11:34:40;;;;;;;;;;;;;;;;;;5107644;28;19924;-68
2022/04/19 11:37:06;;;;;;;;;;;;;;;;;;5108020;28;19928;-68
2022/04/19 11:47:52;;;;;;;;;;;;;;;;;;5054412;28;20376;-68
2022/04/19 11:50:19;;;;;;;;;;;;;;;;;;5107587;28;20149;-68
2022/04/19 11:52:45;;;;;;;;;;;;;;;;;;5103755;28;19924;-68
2022/04/19 11:55:11;;;;;;;;;;;;;;;;;;5101147;28;19924;-68
2022/04/19 11:57:38;;;;;;;;;;;;;;;;;;5102462;28;19924;-67
2022/04/19 12:00:04;;;;;;;;;;;;;;;;;;5107767;28;19931;-67
2022/04/19 12:02:31;;;;;;;;;;;;;;;;;;5105576;28;20357;-68
2022/04/19 12:04:59;;;;;;;;;;;;;;;;;;5104077;28;19927;-69
2022/04/19 12:07:25;;;;;;;;;;;;;;;;;;5105353;28;20031;-68
2022/04/19 12:09:51;;;;;;;;;;;;;;;;;;5106921;28;19932;-68
2022/04/19 12:12:19;;;;;;;;;;;;;;;;;;5105740;28;19924;-67
2022/04/19 12:14:45;;;;;;;;;;;;;;;;;;5107654;28;19928;-68
2022/04/19 12:17:11;;;;;;;;;;;;;;;;;;5105837;28;19927;-68
2022/04/19 12:19:39;;;;;;;;;;;;;;;;;;5104758;28;19934;-67
2022/04/19 12:22:05;;;;;;;;;;;;;;;;;;5106628;28;19935;-68
2022/04/19 12:24:32;;;;;;;;;;;;;;;;;;5104795;28;19931;-67
2022/04/19 12:26:58;;;;;;;;;;;;;;;;;;5107182;28;19928;-67
2022/04/19 12:29:24;;;;;;;;;;;;;;;;;;5106295;28;19928;-67
2022/04/19 12:31:52;;;;;;;;;;;;;;;;;;5102828;28;19927;-68
2022/04/19 12:34:18;;;;;;;;;;;;;;;;;;5104005;28;19967;-68
2022/04/19 12:36:44;;;;;;;;;;;;;;;;;;5109162;28;19928;-68
2022/04/19 12:39:10;;;;;;;;;;;;;;;;;;5111246;28;20054;-67
2022/04/19 12:41:36;;;;;;;;;;;;;;;;;;5109564;28;20482;-67
2022/04/19 12:44:02;;;;;;;;;;;;;;;;;;5107718;28;19977;-67
2022/04/19 12:46:30;;;;;;;;;;;;;;;;;;5110779;28;19934;-68
2022/04/19 12:48:56;;;;;;;;;;;;;;;;;;5098821;28;20308;-69
2022/04/19 12:51:23;;;;;;;;;;;;;;;;;;5111029;28;20242;-68
2022/04/19 12:53:50;;;;;;;;;;;;;;;;;;5110593;28;19931;-68
2022/04/19 12:59:00;;;;;;;;;;;;;;;;;;5107651;28;20485;-68
2022/04/19 13:01:26;;;;;;;;;;;;;;;;;;5102436;28;20373;-67
2022/04/19 13:03:52;;;;;;;;;;;;;;;;;;5107340;28;20265;-68
2022/04/19 13:14:30;;;;;;;;;;;;;;;;;;5100419;28;19931;-67
2022/04/19 13:16:56;;;;;;;;;;;;;;;;;;5109177;28;19959;-67
2022/04/19 13:19:23;;;;;;;;;;;;;;;;;;5100309;28;19935;-67
2022/04/19 13:21:49;;;;;;;;;;;;;;;;;;5109102;28;19928;-68
2022/04/19 13:24:15;;;;;;;;;;;;;;;;;;5108717;28;19935;-69
2022/04/19 13:26:41;;;;;;;;;;;;;;;;;;5109714;28;20378;-67
2022/04/19 13:29:07;;;;;;;;;;;;;;;;;;5108069;28;19927;-68
2022/04/19 13:31:40;;;;;;;;;;;;;;;;;;4984198;28;10000123;-67
2022/04/19 13:34:07;;;;;;;;;;;;;;;;;;5097433;28;19928;-67
2022/04/19 13:36:33;;;;;;;;;;;;;;;;;;5103241;28;20297;-68
2022/04/19 13:38:59;;;;;;;;;;;;;;;;;;5105010;28;19928;-67
2022/04/19 13:41:25;;;;;;;;;;;;;;;;;;5089726;28;19935;-67
2022/04/19 13:43:52;;;;;;;;;;;;;;;;;;5090872;28;20077;-66
2022/04/19 13:46:18;;;;;;;;;;;;;;;;;;5091206;28;19928;-67
2022/04/19 13:48:44;;;;;;;;;;;;;;;;;;5111746;28;19924;-67
2022/04/19 13:51:10;;;;;;;;;;;;;;;;;;5112901;28;19927;-67
2022/04/19 13:53:37;;;;;;;;;;;;;;;;;;5106200;28;19924;-67
2022/04/19 13:56:05;;;;;;;;;;;;;;;;;;5103903;28;19992;-66
2022/04/19 13:58:31;;;;;;;;;;;;;;;;;;5108510;28;19971;-66
2022/04/19 14:00:57;;;;;;;;;;;;;;;;;;5112045;28;20445;-67
2022/04/19 14:03:23;;;;;;;;;;;;;;;;;;5112393;28;19931;-67
2022/04/19 14:05:49;;;;;;;;;;;;;;;;;;5112615;28;19924;-67
2022/04/19 14:08:15;;;;;;;;;;;;;;;;;;5113091;28;19930;-67
2022/04/19 14:10:42;;;;;;;;;;;;;;;;;;5111954;28;19924;-68
2022/04/19 14:13:08;;;;;;;;;;;;;;;;;;5112430;28;20376;-68
2022/04/19 14:15:34;;;;;;;;;;;;;;;;;;5112118;28;19967;-67
2022/04/19 14:18:01;;;;;;;;;;;;;;;;;;5111764;28;19924;-67
2022/04/19 14:20:28;;;;;;;;;;;;;;;;;;5108043;28;20026;-67
2022/04/19 14:22:54;;;;;;;;;;;;;;;;;;5112340;28;19924;-68
2022/04/19 14:25:20;;;;;;;;;;;;;;;;;;5108785;28;19924;-68
2022/04/19 14:27:48;;;;;;;;;;;;;;;;;;5107241;28;19940;-67
2022/04/19 14:33:16;;;;;;;;;;;;;;;;;;5111737;28;19965;-66
2022/04/19 14:35:43;;;;;;;;;;;;;;;;;;5102668;28;19924;-67
2022/04/19 14:38:09;;;;;;;;;;;;;;;;;;5112077;28;20034;-67
2022/04/19 14:40:35;;;;;;;;;;;;;;;;;;5111948;28;20442;-68
2022/04/19 14:43:01;;;;;;;;;;;;;;;;;;5118090;22;19966;-68
2022/04/19 14:45:27;;;;;;;;;;;;;;;;;;5089672;28;19935;-68
2022/04/19 14:47:53;;;;;;;;;;;;;;;;;;5087951;28;19936;-68
2022/04/19 14:50:19;;;;;;;;;;;;;;;;;;5087540;28;19924;-68
2022/04/19 14:52:45;;;;;;;;;;;;;;;;;;5090419;28;20288;-68
2022/04/19 14:55:13;;;;;;;;;;;;;;;;;;5090029;28;19935;-68
2022/04/19 14:57:39;;;;;;;;;;;;;;;;;;5084710;28;19970;-68
2022/04/19 15:00:06;;;;;;;;;;;;;;;;;;5089655;28;19924;-65
2022/04/19 15:02:32;;;;;;;;;;;;;;;;;;5090077;28;19985;-66
2022/04/19 15:05:04;;;;;;;;;;;;;;;;;;5088527;28;19930;-66
2022/04/19 15:07:30;;;;;;;;;;;;;;;;;;5084501;28;19971;-66
2022/04/19 15:09:56;;;;;;;;;;;;;;;;;;5081474;28;19931;-66
2022/04/19 15:12:23;;;;;;;;;;;;;;;;;;5088487;28;19932;-68
2022/04/19 15:14:49;;;;;;;;;;;;;;;;;;5086550;28;20327;-68
2022/04/19 15:17:15;;;;;;;;;;;;;;;;;;5089455;28;20372;-67
2022/04/19 15:19:41;;;;;;;;;;;;;;;;;;5089809;28;19930;-67
2022/04/19 15:22:08;;;;;;;;;;;;;;;;;;5089369;28;19924;-67
2022/04/19 15:24:34;;;;;;;;;;;;;;;;;;5087499;28;19924;-67
2022/04/19 15:27:00;;;;;;;;;;;;;;;;;;5090242;28;19924;-67
2022/04/19 15:29:29;;;;;;;;;;;;;;;;;;5089810;28;20019;-66
2022/04/19 15:31:55;;;;;;;;;;;;;;;;;;5085031;28;19924;-68
2022/04/19 15:34:21;;;;;;;;;;;;;;;;;;5089870;28;19974;-67
2022/04/19 15:36:48;;;;;;;;;;;;;;;;;;5087464;28;19928;-66
2022/04/19 15:39:15;;;;;;;;;;;;;;;;;;5070854;28;20170;-66
2022/04/19 15:41:41;;;;;;;;;;;;;;;;;;5089161;28;19924;-66
2022/04/19 15:44:07;;;;;;;;;;;;;;;;;;5085312;28;20356;-67
2022/04/19 15:46:33;;;;;;;;;;;;;;;;;;5088586;28;20400;-67
2022/04/19 15:49:00;;;;;;;;;;;;;;;;;;5086886;28;19951;-67
2022/04/19 15:51:26;;;;;;;;;;;;;;;;;;5079774;28;20031;-67
2022/04/19 15:53:52;;;;;;;;;;;;;;;;;;5089626;28;20406;-67
2022/04/19 15:56:18;;;;;;;;;;;;;;;;;;5080909;28;20284;-66
2022/04/19 15:58:44;;;;;;;;;;;;;;;;;;5088111;28;19991;-66
2022/04/19 16:01:11;;;;;;;;;;;;;;;;;;5087919;28;20106;-69
2022/04/19 16:03:37;;;;;;;;;;;;;;;;;;5088736;28;19931;-68
2022/04/19 16:06:03;;;;;;;;;;;;;;;;;;5088955;28;19932;-68
2022/04/19 16:08:30;;;;;;;;;;;;;;;;;;5087662;28;19924;-68
2022/04/19 16:10:56;;;;;;;;;;;;;;;;;;5083974;28;19962;-68
2022/04/19 16:13:22;;;;;;;;;;;;;;;;;;5095456;28;19924;-66
2022/04/19 16:15:48;;;;;;;;;;;;;;;;;;5095395;28;19934;-66
2022/04/19 16:23:42;;;;;;;;;;;;;;;;;;5089329;28;19919;-68
2022/04/19 16:26:09;;;;;;;;;;;;;;;;;;5093972;28;20285;-68
2022/04/19 16:28:35;;;;;;;;;;;;;;;;;;5086635;28;19928;-68
2022/04/19 16:31:01;;;;;;;;;;;;;;;;;;5094203;28;19924;-68
2022/04/19 16:33:27;;;;;;;;;;;;;;;;;;5093387;28;19928;-69
2022/04/19 16:35:53;;;;;;;;;;;;;;;;;;5095065;28;20134;-69
2022/04/19 16:38:20;;;;;;;;;;;;;;;;;;5094937;28;19970;-68
2022/04/19 16:40:46;;;;;;;;;;;;;;;;;;5092773;28;20351;-68
2022/04/19 16:43:12;;;;;;;;;;;;;;;;;;5095383;28;19931;-68
2022/04/19 16:45:38;;;;;;;;;;;;;;;;;;5093971;28;19978;-68
2022/04/19 16:48:04;;;;;;;;;;;;;;;;;;5095884;28;20431;-68
2022/04/19 16:50:31;;;;;;;;;;;;;;;;;;5095399;28;19984;-68
2022/04/19 16:52:57;;;;;;;;;;;;;;;;;;5095330;28;19963;-68
2022/04/19 16:55:24;;;;;;;;;;;;;;;;;;5093599;28;20368;-68
2022/04/19 16:57:51;;;;;;;;;;;;;;;;;;5089198;28;19924;-68
2022/04/19 17:00:17;;;;;;;;;;;;;;;;;;5094786;28;19931;-66
2022/04/19 17:02:43;;;;;;;;;;;;;;;;;;5092879;28;20373;-66
2022/04/19 17:05:10;;;;;;;;;;;;;;;;;;5095298;28;20010;-66
2022/04/19 17:07:36;;;;;;;;;;;;;;;;;;5091017;28;20316;-66
2022/04/19 17:10:02;;;;;;;;;;;;;;;;;;5093988;28;20155;-67
2022/04/19 17:12:29;;;;;;;;;;;;;;;;;;5093631;28;19923;-68
2022/04/19 17:14:55;;;;;;;;;;;;;;;;;;5086685;28;19932;-67
2022/04/19 17:17:21;;;;;;;;;;;;;;;;;;5095302;28;19931;-67
2022/04/19 17:19:47;;;;;;;;;;;;;;;;;;5095466;28;20004;-68
2022/04/19 17:22:13;;;;;;;;;;;;;;;;;;5093262;28;19931;-67
2022/04/19 17:24:39;;;;;;;;;;;;;;;;;;5091525;28;19924;-67
2022/04/19 17:27:06;;;;;;;;;;;;;;;;;;5092043;28;20316;-67
2022/04/19 17:29:33;;;;;;;;;;;;;;;;;;5092152;28;19924;-66
2022/04/19 17:32:00;;;;;;;;;;;;;;;;;;5080107;28;19925;-66
2022/04/19 17:34:26;;;;;;;;;;;;;;;;;;5090527;28;19924;-67
2022/04/19 17:36:52;;;;;;;;;;;;;;;;;;5086933;28;19927;-67